CheckWX is a tool to help pilots better visualize weather data.  It is not intended as a substitute for an official pre-flight weather briefing.

05:15:36 UTC

KBVX METAR
Batesville Regional Airport
Batesville, Arkansas, USA
Current

20 mins ago

KBVX 240456Z AUTO 25011KT 10SM CLR 13/01 A2970 RMK AO2 SLP059 T01330006
Observed
Feb-24 @ 04:56 UTC
Wind
  • 250° at 11 KTS
Visibility
10 SM
Flight Rules
VFR
Cloud Levels
  • Clear skies
Temperature
13°C / 55°F
Dewpoint
C / 34°F
Humidity
44%
Altimeter
29.7" Hg
Pressure
1005.9 hPa
Previous

1 hour ago

KBVX 240356Z AUTO 23013G21KT 10SM CLR 14/00 A2969 RMK AO2 SLP054 T01390000
Observed
Feb-24 @ 03:56 UTC
Wind
  • 230° at 13 KTS
  • Gusting to 21 KTS
Visibility
10 SM
Flight Rules
VFR
Cloud Levels
  • Clear skies
Temperature
14°C / 57°F
Dewpoint
C / 32°F
Humidity
39%
Altimeter
29.69" Hg
Pressure
1005.4 hPa
Previous

2 hours ago

KBVX 240256Z AUTO 23011G17KT 10SM CLR 14/00 A2969 RMK AO2 SLP054 T01440000 51026
Observed
Feb-24 @ 02:56 UTC
Wind
  • 230° at 11 KTS
  • Gusting to 17 KTS
Visibility
10 SM
Flight Rules
VFR
Cloud Levels
  • Clear skies
Temperature
14°C / 57°F
Dewpoint
C / 32°F
Humidity
39%
Altimeter
29.69" Hg
Pressure
1005.4 hPa